Time;durP1;ratioP1;P1;durP2;ratioP2;P2;SDS_P1;SDS_P2;PMS_P1;PMS_P2;Temp;Humidity;BMP_temperature;BMP_pressure;BME280_temperature;BME280_humidity;BME280_pressure;Samples;Min_cycle;Max_cycle;Signal;HPM_P1;HPM_P2
2023/06/29 00:01:02;;;;;;;30.45;18.45;;;18.90;99.90;;;;;;4995067;28;20157;-66
2023/06/29 00:03:28;;;;;;;31.10;16.83;;;18.90;99.90;;;;;;4994093;28;20104;-67
2023/06/29 00:05:55;;;;;;;36.35;17.95;;;18.90;99.90;;;;;;4975836;28;20046;-67
2023/06/29 00:08:23;;;;;;;29.27;16.92;;;18.90;99.90;;;;;;4974687;28;20323;-67
2023/06/29 00:10:53;;;;;;;33.50;17.55;;;18.90;99.90;;;;;;4973637;28;20444;-67
2023/06/29 00:13:19;;;;;;;33.58;17.38;;;18.90;99.90;;;;;;4976787;28;20057;-67
2023/06/29 00:15:46;;;;;;;33.25;18.08;;;18.90;99.90;;;;;;4971859;28;20038;-67
2023/06/29 00:18:15;;;;;;;30.08;17.00;;;18.90;99.90;;;;;;4992078;28;20180;-67
2023/06/29 00:20:42;;;;;;;34.35;19.58;;;18.90;99.90;;;;;;4978300;28;20403;-67
2023/06/29 00:23:08;;;;;;;37.53;18.95;;;18.90;99.90;;;;;;4993218;28;20472;-67
2023/06/29 00:25:34;;;;;;;;;;;18.90;99.90;;;;;;4978529;28;20038;-66
2023/06/29 00:28:00;;;;;;;32.42;16.52;;;18.90;99.90;;;;;;4998188;28;19922;-67
2023/06/29 00:30:26;;;;;;;;;;;18.80;99.90;;;;;;4984002;28;20545;-66
2023/06/29 00:32:52;;;;;;;32.40;17.55;;;18.80;99.90;;;;;;4996202;28;20041;-67
2023/06/29 00:35:17;;;;;;;33.65;18.27;;;18.90;99.90;;;;;;4992445;28;20161;-66
2023/06/29 00:37:43;;;;;;;35.13;18.83;;;18.90;99.90;;;;;;4984411;28;20062;-67
2023/06/29 00:40:09;;;;;;;33.63;18.95;;;18.80;99.90;;;;;;4972555;28;20129;-67
2023/06/29 00:42:36;;;;;;;33.00;19.73;;;18.90;99.90;;;;;;4981322;28;20050;-67
2023/06/29 00:45:05;;;;;;;35.45;20.20;;;18.90;99.90;;;;;;4987756;28;20048;-67
2023/06/29 00:47:32;;;;;;;36.60;19.08;;;18.90;99.90;;;;;;4994912;28;20522;-67
2023/06/29 00:49:59;;;;;;;37.78;20.15;;;18.90;99.90;;;;;;4973671;28;20080;-67
2023/06/29 00:52:26;;;;;;;32.58;18.63;;;18.90;99.90;;;;;;4992744;28;20052;-67
2023/06/29 00:54:56;;;;;;;34.78;19.15;;;18.90;99.90;;;;;;4992623;28;20066;-67
2023/06/29 00:57:22;;;;;;;38.50;20.65;;;18.90;99.90;;;;;;4991883;28;20077;-67
2023/06/29 00:59:48;;;;;;;31.15;19.02;;;18.90;99.90;;;;;;4986539;28;20078;-67
2023/06/29 01:02:15;;;;;;;31.23;19.45;;;18.80;99.90;;;;;;4990466;28;20042;-66
2023/06/29 01:04:45;;;;;;;34.65;19.38;;;18.80;99.90;;;;;;4989593;28;20437;-67
2023/06/29 01:07:53;;;;;;;33.13;18.17;;;18.80;99.90;;;;;;4991303;28;20137;-67
2023/06/29 01:10:24;;;;;;;34.60;19.02;;;18.80;99.90;;;;;;4983910;28;20034;-67
2023/06/29 01:12:52;;;;;;;32.70;17.83;;;18.80;99.90;;;;;;4985244;28;20518;-67
2023/06/29 01:15:20;;;;;;;34.38;19.10;;;18.80;99.90;;;;;;4971465;28;20046;-67
2023/06/29 01:17:47;;;;;;;42.20;19.10;;;18.80;99.90;;;;;;4956073;28;20404;-67
2023/06/29 01:20:15;;;;;;;34.13;19.38;;;18.80;99.90;;;;;;4970785;28;20125;-67
2023/06/29 01:22:59;;;;;;;34.67;20.30;;;18.80;99.90;;;;;;4997319;23;20049;-68
2023/06/29 01:25:26;;;;;;;33.25;19.60;;;18.80;99.90;;;;;;5018101;28;20037;-68
2023/06/29 01:27:52;;;;;;;33.72;18.77;;;18.80;99.90;;;;;;4998773;28;20049;-68
2023/06/29 01:30:18;;;;;;;37.85;20.65;;;18.80;99.90;;;;;;5016692;28;20495;-68
2023/06/29 01:32:44;;;;;;;39.38;20.67;;;18.80;99.90;;;;;;5006084;28;20044;-68
2023/06/29 01:35:11;;;;;;;35.47;20.45;;;18.80;99.90;;;;;;5014889;28;20048;-68
2023/06/29 01:37:44;;;;;;;32.15;18.42;;;18.80;99.90;;;;;;5014140;28;20045;-68
2023/06/29 01:40:12;;;;;;;35.67;20.02;;;18.80;99.90;;;;;;5014089;28;20496;-68
2023/06/29 01:42:40;;;;;;;34.70;18.63;;;18.80;99.90;;;;;;5014091;28;20041;-68
2023/06/29 01:45:07;;;;;;;35.08;20.70;;;18.80;99.90;;;;;;4998779;28;20352;-67
2023/06/29 01:47:34;;;;;;;34.85;19.85;;;18.80;99.90;;;;;;4997279;28;20506;-68
2023/06/29 01:50:01;;;;;;;31.75;19.20;;;18.80;99.90;;;;;;5008025;28;20044;-69
2023/06/29 01:52:27;;;;;;;36.88;19.23;;;18.80;99.90;;;;;;4991364;28;20165;-68
2023/06/29 01:54:53;;;;;;;34.03;19.38;;;18.80;99.90;;;;;;5012391;28;20088;-69
2023/06/29 01:57:18;;;;;;;39.83;19.27;;;18.80;99.90;;;;;;4991103;28;20459;-68
2023/06/29 01:59:45;;;;;;;33.10;19.35;;;18.80;99.90;;;;;;4995212;28;20041;-68
2023/06/29 02:02:11;;;;;;;33.78;18.75;;;18.70;99.90;;;;;;5005985;28;20038;-68
2023/06/29 02:04:37;;;;;;;;;;;18.70;99.90;;;;;;5013054;28;20044;-68
2023/06/29 02:07:02;;;;;;;32.97;19.58;;;18.70;99.90;;;;;;5009723;28;19917;-68
2023/06/29 02:09:28;;;;;;;35.13;19.42;;;18.70;99.90;;;;;;5016781;28;20037;-68
2023/06/29 02:11:54;;;;;;;35.17;19.52;;;18.70;99.90;;;;;;4999032;28;20109;-69
2023/06/29 02:14:20;;;;;;;36.67;18.42;;;18.70;99.90;;;;;;4998119;28;20386;-68
2023/06/29 02:16:51;;;;;;;42.50;20.33;;;18.70;99.90;;;;;;4994981;28;20069;-68
2023/06/29 02:19:16;;;;;;;39.08;19.42;;;18.70;99.90;;;;;;4993803;28;20556;-68
2023/06/29 02:21:42;;;;;;;37.47;19.38;;;18.70;99.90;;;;;;4999247;28;20044;-68
2023/06/29 02:24:08;;;;;;;33.90;18.50;;;18.70;99.90;;;;;;5009521;28;20081;-68
2023/06/29 02:26:33;;;;;;;35.85;18.92;;;18.70;99.90;;;;;;5013648;28;20068;-68
2023/06/29 02:28:59;;;;;;;35.05;18.67;;;18.70;99.90;;;;;;5016734;28;20484;-68
2023/06/29 02:31:25;;;;;;;30.70;18.15;;;18.70;99.90;;;;;;4994525;28;20041;-67
2023/06/29 02:33:51;;;;;;;38.25;20.73;;;18.70;99.90;;;;;;5008829;28;20089;-68
2023/06/29 02:36:20;;;;;;;35.28;19.27;;;18.70;99.90;;;;;;5011531;28;20038;-68
2023/06/29 02:38:47;;;;;;;34.95;18.88;;;18.70;99.90;;;;;;5016644;28;20053;-68
2023/06/29 02:41:12;;;;;;;32.47;18.50;;;18.70;99.90;;;;;;5018146;28;20104;-68
2023/06/29 02:43:38;;;;;;;31.70;18.02;;;18.70;99.90;;;;;;5014039;28;20045;-67
2023/06/29 02:46:04;;;;;;;36.50;17.35;;;18.70;99.90;;;;;;4996236;28;20057;-69
2023/06/29 02:48:30;;;;;;;31.60;18.17;;;18.70;99.90;;;;;;5010214;28;20038;-68
2023/06/29 02:50:57;;;;;;;32.15;18.25;;;18.70;99.90;;;;;;4991322;28;20171;-68
2023/06/29 02:53:22;;;;;;;34.03;17.92;;;18.70;99.90;;;;;;5012428;28;20131;-68
2023/06/29 02:55:48;;;;;;;31.45;17.52;;;18.70;99.90;;;;;;4978409;28;20072;-68
2023/06/29 02:58:14;;;;;;;35.72;18.58;;;18.70;99.90;;;;;;5009856;28;20639;-68
2023/06/29 03:00:39;;;;;;;33.40;17.23;;;18.70;99.90;;;;;;5013872;28;20045;-68
2023/06/29 03:03:05;;;;;;;31.25;17.73;;;18.70;99.90;;;;;;4981924;28;20053;-68
2023/06/29 03:05:30;;;;;;;34.15;17.83;;;18.70;99.90;;;;;;5013927;28;20355;-68
2023/06/29 03:07:56;;;;;;;29.60;17.98;;;18.70;99.90;;;;;;4994587;28;20190;-68
2023/06/29 03:10:22;;;;;;;29.77;16.10;;;18.70;99.90;;;;;;5010885;28;20037;-68
2023/06/29 03:12:48;;;;;;;26.52;15.95;;;18.70;99.90;;;;;;5012000;28;20523;-68
2023/06/29 03:15:13;;;;;;;32.13;17.70;;;18.70;99.90;;;;;;5007089;28;20065;-68
2023/06/29 03:17:39;;;;;;;28.45;16.02;;;18.70;99.90;;;;;;5011979;28;20042;-67
2023/06/29 03:20:06;;;;;;;27.85;15.57;;;18.70;99.90;;;;;;5017818;28;20126;-69
2023/06/29 03:22:32;;;;;;;29.20;16.83;;;18.70;99.90;;;;;;5008047;28;20052;-68
2023/06/29 03:24:58;;;;;;;33.53;16.52;;;18.70;99.90;;;;;;5012220;28;20287;-68
2023/06/29 03:27:24;;;;;;;31.73;16.02;;;18.70;99.90;;;;;;4998633;28;20265;-68
2023/06/29 03:29:51;;;;;;;30.65;16.58;;;18.70;99.90;;;;;;4994408;28;20088;-68
2023/06/29 03:32:17;;;;;;;29.48;16.67;;;18.70;99.90;;;;;;4993449;28;20088;-68
2023/06/29 03:34:43;;;;;;;30.80;16.88;;;18.70;99.90;;;;;;5007434;28;20101;-68
2023/06/29 03:37:09;;;;;;;33.80;14.98;;;18.70;99.90;;;;;;4973792;28;20435;-68
2023/06/29 03:39:34;;;;;;;26.85;14.98;;;18.80;99.90;;;;;;4991265;28;20495;-67
2023/06/29 03:42:00;;;;;;;31.48;16.58;;;18.80;99.90;;;;;;4992216;28;21282;-68
2023/06/29 03:44:26;;;;;;;31.23;15.85;;;18.70;99.90;;;;;;4977131;28;20611;-66
2023/06/29 03:46:51;;;;;;;28.55;15.75;;;18.70;99.90;;;;;;4977536;28;20065;-68
2023/06/29 03:49:17;;;;;;;34.50;16.08;;;18.80;99.90;;;;;;4993713;28;21313;-67
2023/06/29 03:51:43;;;;;;;30.75;15.75;;;18.80;99.90;;;;;;4977375;28;20050;-67
2023/06/29 03:54:09;;;;;;;33.10;16.50;;;18.80;99.90;;;;;;4977018;28;20073;-67
2023/06/29 03:56:34;;;;;;;31.02;14.60;;;18.80;99.90;;;;;;4993737;28;20073;-67
2023/06/29 03:59:00;;;;;;;29.10;14.88;;;18.80;99.90;;;;;;4994761;28;20519;-67
2023/06/29 04:01:26;;;;;;;28.98;15.27;;;18.70;99.90;;;;;;4975123;28;20434;-67
2023/06/29 04:03:51;;;;;;;27.08;14.95;;;18.80;99.90;;;;;;4995226;28;20620;-67
2023/06/29 04:06:17;;;;;;;27.55;15.30;;;18.80;99.90;;;;;;4980231;28;20042;-67
2023/06/29 04:08:43;;;;;;;27.60;15.18;;;18.80;99.90;;;;;;4993352;28;20053;-66
2023/06/29 04:11:12;;;;;;;30.13;15.57;;;18.80;99.90;;;;;;4994312;28;20052;-66
2023/06/29 04:13:38;;;;;;;27.73;14.45;;;18.80;99.90;;;;;;4976242;28;20046;-67
2023/06/29 04:16:04;;;;;;;26.50;15.18;;;18.90;99.90;;;;;;4993455;28;20757;-67
2023/06/29 04:18:29;;;;;;;28.55;14.65;;;18.90;99.90;;;;;;4994142;28;20090;-67
2023/06/29 04:20:55;;;;;;;28.58;14.15;;;18.90;99.90;;;;;;4993908;28;20046;-67
2023/06/29 04:23:21;;;;;;;26.17;13.65;;;18.90;99.90;;;;;;4993984;28;20045;-66
2023/06/29 04:25:46;;;;;;;26.42;13.57;;;18.90;99.90;;;;;;4975692;28;20066;-67
2023/06/29 04:28:12;;;;;;;25.83;14.73;;;18.90;99.90;;;;;;4994580;28;20417;-66
2023/06/29 04:30:42;;;;;;;26.40;13.85;;;18.90;99.90;;;;;;4993554;28;20037;-66
2023/06/29 04:33:11;;;;;;;23.88;13.20;;;18.90;99.90;;;;;;4992738;28;20046;-67
2023/06/29 04:35:40;;;;;;;27.48;14.82;;;18.90;99.90;;;;;;4976958;28;20561;-67
2023/06/29 04:38:09;;;;;;;27.10;13.85;;;19.00;99.90;;;;;;4977073;28;20049;-68
2023/06/29 04:40:35;;;;;;;25.02;13.50;;;18.90;99.90;;;;;;4994062;28;20115;-66
2023/06/29 04:43:01;;;;;;;31.77;14.65;;;19.00;99.90;;;;;;4994056;28;20703;-66
2023/06/29 04:45:28;;;;;;;24.35;13.75;;;19.00;99.90;;;;;;4994754;28;20049;-67
2023/06/29 04:47:56;;;;;;;21.90;13.20;;;19.00;99.90;;;;;;4976727;28;20507;-67
2023/06/29 04:50:25;;;;;;;23.13;13.05;;;19.00;99.90;;;;;;4993916;28;20042;-66
2023/06/29 04:52:55;;;;;;;26.63;14.07;;;19.00;99.90;;;;;;4992830;28;21707;-66
2023/06/29 04:55:22;;;;;;;28.98;14.98;;;19.00;99.90;;;;;;4976178;28;20080;-66
2023/06/29 04:57:48;;;;;;;27.27;14.38;;;19.00;99.90;;;;;;4993260;28;20049;-67
2023/06/29 05:00:14;;;;;;;26.98;13.73;;;19.00;99.90;;;;;;4993636;28;20042;-66
2023/06/29 05:02:41;;;;;;;23.40;13.38;;;19.00;99.90;;;;;;4976868;28;20523;-67
2023/06/29 05:05:07;;;;;;;25.35;13.13;;;19.00;99.90;;;;;;4994056;28;20197;-67
2023/06/29 05:07:34;;;;;;;23.70;12.13;;;19.00;99.90;;;;;;4975364;28;20108;-66
2023/06/29 05:10:00;;;;;;;26.05;13.82;;;19.00;99.90;;;;;;4975280;28;20072;-66
2023/06/29 05:12:26;;;;;;;26.65;14.38;;;19.00;99.90;;;;;;4976439;28;20132;-66
2023/06/29 05:14:51;;;;;;;20.98;12.77;;;19.00;99.90;;;;;;4975301;28;20046;-67
2023/06/29 05:17:17;;;;;;;22.98;13.32;;;19.00;99.90;;;;;;4976217;28;20566;-67
2023/06/29 05:19:43;;;;;;;;;;;19.00;99.90;;;;;;4974805;28;20053;-67
2023/06/29 05:22:09;;;;;;;23.98;12.93;;;19.00;99.90;;;;;;4974759;28;19971;-67
2023/06/29 05:24:37;;;;;;;25.33;13.30;;;19.00;99.90;;;;;;4992105;28;20057;-67
2023/06/29 05:27:06;;;;;;;21.33;11.57;;;19.00;99.90;;;;;;4987918;28;20100;-66
2023/06/29 05:29:32;;;;;;;25.30;13.20;;;19.00;99.90;;;;;;4974740;28;20184;-67
2023/06/29 05:31:57;;;;;;;23.17;13.23;;;19.00;99.90;;;;;;4974898;28;20049;-68
2023/06/29 05:34:23;;;;;;;23.65;13.30;;;19.00;99.90;;;;;;4975201;28;20053;-67
2023/06/29 05:36:49;;;;;;;26.20;12.73;;;19.00;99.90;;;;;;4992016;28;20030;-67
2023/06/29 05:39:14;;;;;;;22.80;12.38;;;19.10;99.90;;;;;;4975288;28;20569;-66
2023/06/29 05:41:40;;;;;;;26.73;12.50;;;19.10;99.90;;;;;;4975647;28;20042;-67
2023/06/29 05:44:09;;;;;;;23.40;13.18;;;19.00;99.90;;;;;;4993265;28;20140;-67
2023/06/29 05:46:34;;;;;;;21.83;11.88;;;19.10;99.90;;;;;;4993088;28;20061;-66
2023/06/29 05:49:01;;;;;;;24.50;12.70;;;19.10;99.90;;;;;;4980421;28;20231;-67
2023/06/29 05:51:27;;;;;;;22.50;12.25;;;19.10;99.90;;;;;;4992614;28;20407;-67
2023/06/29 05:53:52;;;;;;;22.73;11.70;;;19.20;99.90;;;;;;4992119;28;20041;-67
2023/06/29 05:56:18;;;;;;;25.50;12.20;;;19.20;99.90;;;;;;4992396;28;20046;-66
2023/06/29 05:58:46;;;;;;;24.92;12.13;;;19.20;99.90;;;;;;4992793;28;20057;-67
2023/06/29 06:01:12;;;;;;;20.27;11.32;;;19.20;99.90;;;;;;4992818;28;20391;-68
2023/06/29 06:03:39;;;;;;;25.75;13.40;;;19.30;99.90;;;;;;4992616;28;20274;-66
2023/06/29 06:06:05;;;;;;;20.55;11.10;;;19.30;99.90;;;;;;4973542;28;20085;-66
2023/06/29 06:08:31;;;;;;;23.40;11.75;;;19.30;99.90;;;;;;4991964;28;20104;-67
2023/06/29 06:10:57;;;;;;;20.40;11.50;;;19.30;99.90;;;;;;4974186;28;20054;-67
2023/06/29 06:13:22;;;;;;;21.58;11.65;;;19.30;99.90;;;;;;4973715;28;20530;-67
2023/06/29 06:15:48;;;;;;;25.17;12.98;;;19.40;99.90;;;;;;4992065;28;20548;-67
2023/06/29 06:18:14;;;;;;;23.25;12.70;;;19.40;99.90;;;;;;4991349;28;20515;-67
2023/06/29 06:20:39;;;;;;;19.13;11.50;;;19.40;99.90;;;;;;4974353;28;20053;-67
2023/06/29 06:23:05;;;;;;;25.23;12.60;;;19.40;99.90;;;;;;4987337;28;20121;-66
2023/06/29 06:25:30;;;;;;;24.45;13.10;;;19.40;99.90;;;;;;4974400;28;20188;-67
2023/06/29 06:27:56;;;;;;;23.15;12.40;;;19.40;99.90;;;;;;4972635;28;20069;-67
2023/06/29 06:30:23;;;;;;;25.98;12.93;;;19.40;99.90;;;;;;4992711;28;20053;-66
2023/06/29 06:32:49;;;;;;;21.80;13.25;;;19.40;99.90;;;;;;4991712;28;20127;-66
2023/06/29 06:35:16;;;;;;;22.83;12.82;;;19.40;99.90;;;;;;4970541;28;20125;-68
2023/06/29 06:37:42;;;;;;;;;;;19.40;99.90;;;;;;4975450;28;20518;-67
2023/06/29 06:40:11;;;;;;;22.38;11.80;;;19.40;99.90;;;;;;4991582;28;19932;-66
2023/06/29 06:42:38;;;;;;;24.55;12.02;;;19.40;99.90;;;;;;4991719;28;20607;-67
2023/06/29 06:45:05;;;;;;;22.52;13.57;;;19.50;99.90;;;;;;4992245;28;20670;-66
2023/06/29 06:47:32;;;;;;;24.27;12.95;;;19.50;99.90;;;;;;4990969;28;20132;-67
2023/06/29 06:49:59;;;;;;;25.65;13.85;;;19.60;99.90;;;;;;4991984;28;20452;-67
2023/06/29 06:52:25;;;;;;;27.15;12.32;;;19.60;99.90;;;;;;4974569;28;20046;-66
2023/06/29 06:54:51;;;;;;;27.45;13.07;;;19.60;99.90;;;;;;4991667;28;20400;-66
2023/06/29 06:57:17;;;;;;;;;;;19.70;99.90;;;;;;4991336;28;20050;-67
2023/06/29 06:59:43;;;;;;;24.55;13.00;;;19.70;99.90;;;;;;4992122;28;20426;-68
2023/06/29 07:02:08;;;;;;;27.13;13.52;;;19.70;99.90;;;;;;4981132;28;20046;-67
2023/06/29 07:04:34;;;;;;;28.85;13.82;;;19.80;99.90;;;;;;4991709;28;20152;-67
2023/06/29 07:07:00;;;;;;;24.83;13.27;;;19.80;99.90;;;;;;4991398;28;20411;-66
2023/06/29 07:09:25;;;;;;;22.08;12.18;;;19.90;99.90;;;;;;4993495;28;20045;-66
2023/06/29 07:11:51;;;;;;;24.92;12.13;;;19.90;99.90;;;;;;4974124;28;20085;-66
2023/06/29 07:14:17;;;;;;;29.15;13.73;;;19.90;99.90;;;;;;4991467;28;20050;-67
2023/06/29 07:16:43;;;;;;;25.52;12.65;;;20.00;99.90;;;;;;4993620;28;20486;-67
2023/06/29 07:19:12;;;;;;;27.35;13.40;;;20.00;99.90;;;;;;4978938;28;20053;-68
2023/06/29 07:21:38;;;;;;;25.48;13.48;;;20.00;99.90;;;;;;4977553;28;20046;-67
2023/06/29 07:24:04;;;;;;;27.38;13.85;;;20.00;99.90;;;;;;4977983;28;20104;-67
2023/06/29 07:26:30;;;;;;;26.98;13.10;;;20.10;99.90;;;;;;4995026;28;20411;-67
2023/06/29 07:28:56;;;;;;;27.30;14.23;;;20.10;99.90;;;;;;4977767;28;20050;-66
2023/06/29 07:31:29;;;;;;;29.60;14.10;;;20.10;99.90;;;;;;4995501;28;20183;-66
2023/06/29 07:33:55;;;;;;;29.98;13.95;;;20.20;99.90;;;;;;4995307;28;20089;-67
2023/06/29 07:36:23;;;;;;;28.67;14.57;;;20.20;99.90;;;;;;4977693;28;20046;-67
2023/06/29 07:38:49;;;;;;;29.10;14.35;;;20.30;99.90;;;;;;4977546;28;20172;-67
2023/06/29 07:41:16;;;;;;;26.70;13.40;;;20.30;99.90;;;;;;4995075;28;20052;-67
2023/06/29 07:43:54;;;;;;;26.20;13.95;;;20.30;99.90;;;;;;4975647;28;20053;-68
2023/06/29 07:46:20;;;;;;;30.08;14.05;;;20.40;99.90;;;;;;4976433;28;20100;-66
2023/06/29 07:48:47;;;;;;;28.27;14.80;;;20.50;99.90;;;;;;4977190;28;20046;-67
2023/06/29 07:51:13;;;;;;;27.67;15.10;;;20.50;99.90;;;;;;4995951;28;20053;-67
2023/06/29 07:53:39;;;;;;;;;;;20.60;99.90;;;;;;4977192;28;20034;-66
2023/06/29 07:56:05;;;;;;;30.23;14.40;;;20.60;99.90;;;;;;4976583;28;19928;-68
2023/06/29 07:58:30;;;;;;;;;;;20.60;99.90;;;;;;4977106;28;20057;-67
2023/06/29 08:00:57;;;;;;;32.60;14.85;;;20.70;99.90;;;;;;4994049;28;20387;-66
2023/06/29 08:03:22;;;;;;;31.05;14.88;;;20.80;99.90;;;;;;4994200;28;20121;-67
2023/06/29 08:05:49;;;;;;;;;;;20.80;99.90;;;;;;4977284;28;20124;-67
2023/06/29 08:08:14;;;;;;;29.67;15.00;;;20.70;99.90;;;;;;4993854;28;19932;-67
2023/06/29 08:10:40;;;;;;;;;;;20.80;99.90;;;;;;4995116;28;20068;-67
2023/06/29 08:13:06;;;;;;;29.27;15.55;;;20.80;99.90;;;;;;4965126;28;20439;-67
2023/06/29 08:15:32;;;;;;;33.08;17.17;;;20.80;99.90;;;;;;4994258;28;20056;-68
2023/06/29 08:17:57;;;;;;;33.50;16.83;;;20.80;99.90;;;;;;4992706;28;20057;-67
2023/06/29 08:20:23;;;;;;;27.85;15.45;;;20.80;99.90;;;;;;4976422;28;20799;-66
2023/06/29 08:22:49;;;;;;;32.03;15.95;;;20.80;99.90;;;;;;4976413;28;20054;-67
2023/06/29 08:25:15;;;;;;;28.83;16.60;;;20.80;99.90;;;;;;4975601;28;20057;-67
2023/06/29 08:27:41;;;;;;;;;;;20.80;99.90;;;;;;4977167;28;20049;-67
2023/06/29 08:30:09;;;;;;;31.10;16.00;;;20.70;99.90;;;;;;4976005;28;19925;-68
2023/06/29 08:32:35;;;;;;;32.63;17.17;;;20.70;99.90;;;;;;4994044;28;20582;-67
2023/06/29 08:35:00;;;;;;;;;;;20.70;99.90;;;;;;4994264;28;20052;-67
2023/06/29 08:37:28;;;;;;;30.05;16.70;;;20.70;99.90;;;;;;4993400;28;20411;-68
2023/06/29 08:39:54;;;;;;;34.63;16.25;;;20.60;99.90;;;;;;4994569;28;20056;-67
2023/06/29 08:42:20;;;;;;;29.15;16.63;;;20.60;99.90;;;;;;4994197;28;20550;-67
2023/06/29 08:44:46;;;;;;;;;;;20.60;99.90;;;;;;4977918;28;20058;-67
2023/06/29 08:47:12;;;;;;;27.50;15.82;;;20.60;99.90;;;;;;4975260;28;19928;-68
2023/06/29 08:49:41;;;;;;;33.03;16.00;;;20.60;99.90;;;;;;4976110;28;20077;-67
2023/06/29 08:52:11;;;;;;;31.55;15.80;;;20.60;99.90;;;;;;4993418;28;20049;-66
2023/06/29 08:54:38;;;;;;;33.50;16.90;;;20.60;99.90;;;;;;4992867;28;20046;-67
2023/06/29 08:57:05;;;;;;;27.02;15.88;;;20.50;99.90;;;;;;4975606;28;20582;-67
2023/06/29 08:59:32;;;;;;;28.17;15.73;;;20.50;99.90;;;;;;4976358;28;20384;-67
2023/06/29 09:01:58;;;;;;;28.60;16.02;;;20.50;99.90;;;;;;4974854;28;20451;-67
2023/06/29 09:04:24;;;;;;;;;;;20.50;99.90;;;;;;4994150;28;20041;-67
2023/06/29 09:06:53;;;;;;;26.93;15.70;;;20.50;99.90;;;;;;4979051;28;20397;-67
2023/06/29 09:09:20;;;;;;;25.83;14.55;;;20.50;99.90;;;;;;4991261;28;20476;-67
2023/06/29 09:11:46;;;;;;;30.77;16.02;;;20.50;99.90;;;;;;4993574;28;20041;-67
2023/06/29 09:14:11;;;;;;;26.23;14.73;;;20.50;99.90;;;;;;4978044;28;20037;-67
2023/06/29 09:16:52;;;;;;;28.88;16.70;;;20.50;99.90;;;;;;4975910;28;20046;-67
2023/06/29 09:19:19;;;;;;;27.10;15.55;;;20.50;99.90;;;;;;4991929;28;20141;-70
2023/06/29 09:21:47;;;;;;;28.13;16.23;;;20.50;99.90;;;;;;4993054;28;20411;-67
2023/06/29 09:24:17;;;;;;;27.40;15.48;;;20.50;99.90;;;;;;4992283;28;20404;-68
2023/06/29 09:26:47;;;;;;;28.00;15.70;;;20.50;99.90;;;;;;4991372;28;20046;-67
2023/06/29 09:29:13;;;;;;;27.90;15.57;;;20.50;99.90;;;;;;4992175;28;20042;-67
2023/06/29 09:31:38;;;;;;;;;;;20.50;99.90;;;;;;4976206;28;20538;-67
2023/06/29 09:34:25;;;;;;;31.80;16.33;;;20.50;99.90;;;;;;4975285;28;20039;-67
2023/06/29 09:36:51;;;;;;;30.15;16.63;;;20.40;99.90;;;;;;4976913;28;20044;-66
2023/06/29 09:39:18;;;;;;;29.70;16.95;;;20.40;99.90;;;;;;4994117;28;20364;-67
2023/06/29 09:41:55;;;;;;;30.15;16.92;;;20.40;99.90;;;;;;4975776;28;20512;-67
2023/06/29 09:44:23;;;;;;;28.98;16.88;;;20.30;99.90;;;;;;4957637;28;20411;-66
2023/06/29 09:46:50;;;;;;;34.35;18.08;;;20.30;99.90;;;;;;4975510;28;20037;-67
2023/06/29 09:49:19;;;;;;;32.17;17.45;;;20.20;99.90;;;;;;4991225;28;20123;-66
2023/06/29 09:51:48;;;;;;;31.20;16.77;;;20.20;99.90;;;;;;4992650;28;20518;-67
2023/06/29 09:54:14;;;;;;;35.92;17.77;;;20.20;99.90;;;;;;4993464;28;20037;-67
2023/06/29 09:56:41;;;;;;;34.33;17.90;;;20.20;99.90;;;;;;4976157;28;20317;-66
2023/06/29 09:59:11;;;;;;;32.38;18.15;;;20.20;99.90;;;;;;4974435;28;20046;-67
2023/06/29 10:01:43;;;;;;;30.80;18.38;;;20.20;99.90;;;;;;4991673;28;20046;-66
2023/06/29 10:04:09;;;;;;;30.92;17.35;;;20.30;99.90;;;;;;4992550;28;20049;-66
2023/06/29 10:06:46;;;;;;;26.98;16.00;;;20.30;99.90;;;;;;4974419;28;20357;-67
2023/06/29 10:09:17;;;;;;;29.90;17.50;;;20.30;99.90;;;;;;4991963;28;20058;-67
2023/06/29 10:11:48;;;;;;;30.58;17.60;;;20.40;99.90;;;;;;4992167;28;20313;-66
2023/06/29 10:14:14;;;;;;;32.22;17.60;;;20.40;99.90;;;;;;4991335;28;20050;-66
2023/06/29 10:16:45;;;;;;;30.40;17.88;;;20.50;99.90;;;;;;4991048;28;20100;-67
2023/06/29 10:19:20;;;;;;;34.30;17.85;;;20.50;99.90;;;;;;4974314;28;20040;-67
2023/06/29 10:21:53;;;;;;;30.05;17.52;;;20.50;99.90;;;;;;4975005;28;20526;-67
2023/06/29 10:24:23;;;;;;;34.17;18.67;;;20.60;99.90;;;;;;4991886;28;20049;-67
2023/06/29 10:26:49;;;;;;;34.55;19.33;;;20.60;99.90;;;;;;4973127;28;20060;-67
2023/06/29 10:29:15;;;;;;;34.95;18.92;;;20.60;99.90;;;;;;4974020;28;20050;-68
2023/06/29 10:31:48;;;;;;;;;;;20.60;99.90;;;;;;4975624;28;20458;-67
2023/06/29 10:34:14;;;;;;;31.10;17.85;;;20.60;99.90;;;;;;4973691;28;20260;-67
2023/06/29 10:36:46;;;;;;;;;;;20.60;99.90;;;;;;4974668;28;20049;-67
2023/06/29 10:39:37;;;;;;;33.85;19.02;;;20.60;99.90;;;;;;4989180;28;20128;-67
2023/06/29 10:42:29;;;;;;;36.40;17.45;;;20.60;99.90;;;;;;4974011;28;20081;-68
2023/06/29 10:44:55;;;;;;;36.80;18.77;;;20.60;99.90;;;;;;4973382;28;20434;-67
2023/06/29 10:47:28;;;;;;;;;;;20.70;99.90;;;;;;4974734;28;20359;-66
2023/06/29 10:50:13;;;;;;;34.80;18.27;;;20.70;99.90;;;;;;4974585;28;19944;-66
2023/06/29 10:52:40;;;;;;;37.33;20.45;;;20.70;99.90;;;;;;4991738;28;20042;-66
2023/06/29 10:55:23;;;;;;;38.60;20.42;;;20.70;99.90;;;;;;4972329;28;20160;-67
2023/06/29 10:57:54;;;;;;;33.30;18.27;;;20.80;99.90;;;;;;4992743;28;20077;-67
2023/06/29 11:00:22;;;;;;;36.65;18.23;;;20.80;99.90;;;;;;4991258;28;20491;-67
2023/06/29 11:02:49;;;;;;;35.55;18.75;;;20.80;99.90;;;;;;4991654;28;20384;-67
2023/06/29 11:05:16;;;;;;;35.67;18.70;;;20.80;99.90;;;;;;4990916;28;20045;-67
2023/06/29 11:07:48;;;;;;;37.13;18.75;;;20.90;99.90;;;;;;4972792;28;20679;-67
2023/06/29 11:10:14;;;;;;;36.50;20.17;;;21.00;99.90;;;;;;4991362;28;20036;-67
2023/06/29 11:12:40;;;;;;;;;;;21.10;99.90;;;;;;4991817;28;20033;-66
2023/06/29 11:15:15;;;;;;;37.73;18.30;;;21.20;99.90;;;;;;4971720;28;19921;-67
2023/06/29 11:17:44;;;;;;;33.83;17.90;;;21.30;99.90;;;;;;4992194;28;21012;-67
2023/06/29 11:20:15;;;;;;;35.80;19.50;;;21.40;99.90;;;;;;4991114;28;21364;-67
2023/06/29 11:22:41;;;;;;;36.75;20.63;;;21.50;99.90;;;;;;4990665;28;20064;-67
2023/06/29 11:25:12;;;;;;;34.20;18.40;;;21.50;99.90;;;;;;4973290;28;20439;-66
2023/06/29 11:27:38;;;;;;;34.47;18.17;;;21.50;99.90;;;;;;4991340;28;20528;-67
2023/06/29 11:30:07;;;;;;;;;;;21.50;99.90;;;;;;4991687;28;20041;-67
2023/06/29 11:32:33;;;;;;;36.92;19.10;;;21.50;99.90;;;;;;4972459;28;19936;-67
2023/06/29 11:35:00;;;;;;;37.70;21.17;;;21.60;99.90;;;;;;4972784;28;20061;-66
2023/06/29 11:37:27;;;;;;;34.38;19.17;;;21.80;99.90;;;;;;4974437;28;20076;-67
2023/06/29 11:39:53;;;;;;;38.67;19.70;;;22.00;99.90;;;;;;4977839;28;20570;-67
2023/06/29 11:42:21;;;;;;;33.70;19.70;;;22.10;99.90;;;;;;4973231;28;20038;-66
2023/06/29 11:44:49;;;;;;;42.22;20.63;;;22.30;99.90;;;;;;4972751;28;20042;-66
2023/06/29 11:47:16;;;;;;;35.83;19.20;;;22.40;99.90;;;;;;4991151;28;20042;-66
2023/06/29 11:49:42;;;;;;;34.90;20.17;;;22.50;99.90;;;;;;4973766;28;20060;-68
2023/06/29 11:52:08;;;;;;;;;;;22.60;99.90;;;;;;4991108;28;20042;-67
2023/06/29 11:54:34;;;;;;;35.22;19.40;;;22.80;99.90;;;;;;4973697;28;19925;-66
2023/06/29 11:56:59;;;;;;;;;;;22.80;99.90;;;;;;4990846;28;20136;-67
2023/06/29 11:59:25;;;;;;;39.15;19.10;;;23.00;99.90;;;;;;4991057;28;19925;-67
2023/06/29 12:01:51;;;;;;;;;;;23.00;99.90;;;;;;4974674;28;20137;-67
2023/06/29 12:04:16;;;;;;;36.85;19.85;;;22.90;99.90;;;;;;4992062;28;19967;-67
2023/06/29 12:06:49;;;;;;;;;;;22.80;99.90;;;;;;4977231;28;20060;-67
2023/06/29 12:09:15;;;;;;;34.25;18.52;;;22.80;99.90;;;;;;4993252;28;19978;-67
2023/06/29 12:11:40;;;;;;;;;;;22.80;99.90;;;;;;4995394;28;20404;-67
2023/06/29 12:14:11;;;;;;;38.13;18.75;;;22.80;99.90;;;;;;4995193;28;19925;-67
2023/06/29 12:16:39;;;;;;;36.70;19.25;;;22.90;99.90;;;;;;4976563;28;21357;-67
2023/06/29 12:19:11;;;;;;;33.10;19.08;;;23.10;99.90;;;;;;4994347;28;20045;-67
2023/06/29 12:21:37;;;;;;;38.65;19.23;;;23.10;99.90;;;;;;4994175;28;20530;-67
2023/06/29 12:24:03;;;;;;;;;;;23.10;99.90;;;;;;4980441;28;20129;-67
2023/06/29 12:26:29;;;;;;;;;;;23.20;99.90;;;;;;4975970;28;19921;-67
2023/06/29 12:28:54;;;;;;;;;;;23.30;99.90;;;;;;4989720;28;19921;-66
2023/06/29 12:31:27;;;;;;;;;;;23.40;99.90;;;;;;4994801;28;19979;-66
2023/06/29 12:33:53;;;;;;;;;;;23.60;99.90;;;;;;4975619;28;20433;-67
2023/06/29 12:36:19;;;;;;;;;;;23.70;99.90;;;;;;4994335;28;20011;-67
2023/06/29 12:38:45;;;;;;;;;;;23.90;99.90;;;;;;4993637;28;19929;-67